Time;durP1;ratioP1;P1;durP2;ratioP2;P2;SDS_P1;SDS_P2;PMS_P1;PMS_P2;Temp;Humidity;BMP_temperature;BMP_pressure;BME280_temperature;BME280_humidity;BME280_pressure;Samples;Min_cycle;Max_cycle;Signal;HPM_P1;HPM_P2
2023/08/01 00:02:17;;;;;;;2.35;0.70;;;;;;;16.72;100.00;99682.00;5019568;28;20034;-75
2023/08/01 00:04:43;;;;;;;1.00;0.38;;;;;;;16.73;100.00;99678.38;5004270;28;20040;-74
2023/08/01 00:07:08;;;;;;;0.60;0.40;;;;;;;16.69;100.00;99645.84;5011610;28;20083;-75
2023/08/01 00:09:34;;;;;;;1.48;0.30;;;;;;;16.67;100.00;99624.28;5022017;28;20534;-75
2023/08/01 00:11:59;;;;;;;4.00;0.60;;;;;;;16.68;100.00;99638.97;5025644;28;20124;-75
2023/08/01 00:14:25;;;;;;;0.85;0.40;;;;;;;16.65;100.00;99619.31;5018432;28;20496;-75
2023/08/01 00:16:51;;;;;;;0.32;0.28;;;;;;;16.64;100.00;99641.25;5021782;28;20034;-75
2023/08/01 00:19:16;;;;;;;1.55;0.43;;;;;;;16.65;100.00;99655.13;5002467;28;20041;-75
2023/08/01 00:21:42;;;;;;;1.42;0.60;;;;;;;16.66;100.00;99648.88;5018175;28;20053;-74
2023/08/01 00:24:08;;;;;;;0.30;0.30;;;;;;;16.65;100.00;99666.41;5021519;28;20056;-75
2023/08/01 00:26:34;;;;;;;0.60;0.40;;;;;;;16.67;100.00;99672.22;5017101;28;20579;-74
2023/08/01 00:28:59;;;;;;;1.80;0.38;;;;;;;16.74;100.00;99674.72;5018088;28;20032;-75
2023/08/01 00:31:25;;;;;;;6.18;0.60;;;;;;;16.73;100.00;99646.97;5007885;28;20080;-75
2023/08/01 00:33:50;;;;;;;3.00;0.50;;;;;;;16.73;100.00;99633.88;5003032;28;20037;-75
2023/08/01 00:36:16;;;;;;;2.15;0.50;;;;;;;16.71;100.00;99631.50;5022837;28;20037;-75
2023/08/01 00:38:43;;;;;;;3.15;0.40;;;;;;;16.70;100.00;99623.84;5022694;28;20044;-75
2023/08/01 00:41:11;;;;;;;1.60;0.28;;;;;;;16.68;100.00;99624.06;5022947;28;20060;-74
2023/08/01 00:43:37;;;;;;;0.82;0.50;;;;;;;16.70;100.00;99629.09;5020283;28;20042;-74
2023/08/01 00:46:05;;;;;;;0.80;0.60;;;;;;;16.67;100.00;99617.25;5014995;28;20034;-75
2023/08/01 00:48:30;;;;;;;0.52;0.50;;;;;;;16.60;100.00;99613.94;5010809;28;20506;-75
2023/08/01 00:50:59;;;;;;;1.17;1.08;;;;;;;16.64;100.00;99622.13;5006639;28;20030;-75
2023/08/01 00:53:24;;;;;;;1.25;0.90;;;;;;;16.63;100.00;99613.50;5022504;28;20033;-74
2023/08/01 00:55:52;;;;;;;2.90;0.85;;;;;;;16.64;100.00;99598.59;5023926;28;20040;-74
2023/08/01 00:58:18;;;;;;;0.80;0.75;;;;;;;16.60;100.00;99595.63;5023565;28;20116;-73
2023/08/01 01:00:43;;;;;;;1.40;0.90;;;;;;;16.55;100.00;99591.03;5007826;28;20111;-74
2023/08/01 01:03:09;;;;;;;2.65;0.80;;;;;;;16.57;100.00;99590.03;5023182;28;20046;-73
2023/08/01 01:05:38;;;;;;;1.08;0.85;;;;;;;16.64;100.00;99595.97;5019180;28;20041;-74
2023/08/01 01:08:04;;;;;;;0.95;0.85;;;;;;;16.57;100.00;99597.88;5005145;28;20046;-73
2023/08/01 01:10:30;;;;;;;1.10;0.95;;;;;;;16.55;100.00;99600.72;5007730;28;20044;-73
2023/08/01 01:12:56;;;;;;;1.20;0.85;;;;;;;16.58;100.00;99584.59;5021470;28;20037;-74
2023/08/01 01:15:21;;;;;;;1.10;0.80;;;;;;;16.58;100.00;99589.81;5020207;28;20041;-73
2023/08/01 01:17:46;;;;;;;4.03;1.20;;;;;;;16.55;100.00;99579.78;5019925;28;20118;-73
2023/08/01 01:20:12;;;;;;;2.20;1.40;;;;;;;16.53;100.00;99568.75;5009855;28;20044;-73
2023/08/01 01:22:39;;;;;;;2.88;1.60;;;;;;;16.51;100.00;99570.81;4986714;28;20041;-73
2023/08/01 01:25:08;;;;;;;5.07;1.70;;;;;;;16.51;100.00;99561.13;4993101;28;20034;-74
2023/08/01 01:27:35;;;;;;;1.42;1.20;;;;;;;16.52;100.00;99562.72;5022061;28;20033;-74
2023/08/01 01:30:04;;;;;;;1.80;1.60;;;;;;;16.54;100.00;99565.13;5023819;28;20123;-74
2023/08/01 01:32:30;;;;;;;3.22;1.15;;;;;;;16.45;100.00;99556.00;5006932;28;20068;-74
2023/08/01 01:34:56;;;;;;;5.80;1.50;;;;;;;16.47;100.00;99556.56;5021350;28;20029;-73
2023/08/01 01:37:21;;;;;;;3.95;1.35;;;;;;;16.49;100.00;99570.22;5020847;28;20186;-74
2023/08/01 01:39:46;;;;;;;1.67;1.58;;;;;;;16.53;100.00;99559.06;5024175;28;20048;-74
2023/08/01 01:42:13;;;;;;;1.65;1.42;;;;;;;16.52;100.00;99556.72;5005672;28;20033;-74
2023/08/01 01:44:38;;;;;;;1.60;1.25;;;;;;;16.47;100.00;99556.56;5021330;28;20100;-75
2023/08/01 01:47:04;;;;;;;1.75;1.20;;;;;;;16.48;100.00;99572.06;5009294;28;20064;-75
2023/08/01 01:49:30;;;;;;;2.47;1.38;;;;;;;16.51;100.00;99571.59;5017577;28;20021;-75
2023/08/01 01:51:55;;;;;;;3.97;1.63;;;;;;;16.49;100.00;99572.84;5002070;28;20103;-74
2023/08/01 01:54:21;;;;;;;2.50;1.40;;;;;;;16.44;100.00;99564.88;4990554;28;20067;-74
2023/08/01 01:56:46;;;;;;;1.88;1.30;;;;;;;16.53;100.00;99558.28;5004648;28;20038;-74
2023/08/01 01:59:12;;;;;;;3.05;1.52;;;;;;;16.63;100.00;99553.31;5005868;28;20025;-74
2023/08/01 02:01:37;;;;;;;4.28;2.10;;;;;;;16.48;100.00;99540.66;5002564;28;20041;-74
2023/08/01 02:04:04;;;;;;;4.40;2.38;;;;;;;16.51;100.00;99542.03;5025597;28;20032;-74
2023/08/01 02:06:29;;;;;;;3.60;2.83;;;;;;;16.41;100.00;99545.19;5016745;28;20045;-73
2023/08/01 02:08:55;;;;;;;4.43;2.58;;;;;;;16.41;100.00;99539.97;5005241;28;20026;-74
2023/08/01 02:11:21;;;;;;;4.18;3.20;;;;;;;16.31;100.00;99537.91;5017975;28;20033;-74
2023/08/01 02:13:46;;;;;;;5.00;3.03;;;;;;;16.31;100.00;99544.94;5004935;28;20150;-74
2023/08/01 02:16:12;;;;;;;5.60;3.78;;;;;;;16.35;100.00;99556.56;5020707;28;20416;-74
2023/08/01 02:18:37;;;;;;;6.68;4.45;;;;;;;16.30;100.00;99540.72;5024427;28;20052;-73
2023/08/01 02:21:03;;;;;;;6.60;4.32;;;;;;;16.20;100.00;99535.22;5003434;28;20149;-73
2023/08/01 02:23:28;;;;;;;7.75;4.72;;;;;;;16.21;100.00;99536.84;4992629;28;20029;-74
2023/08/01 02:25:54;;;;;;;6.03;4.70;;;;;;;16.15;100.00;99533.28;5021794;28;20514;-74
2023/08/01 02:28:20;;;;;;;6.70;5.20;;;;;;;16.19;100.00;99533.66;5025682;28;20028;-73
2023/08/01 02:30:45;;;;;;;8.45;4.60;;;;;;;16.13;100.00;99538.75;5021749;28;20030;-74
2023/08/01 02:33:11;;;;;;;14.07;5.18;;;;;;;16.09;100.00;99540.22;5008455;28;20439;-74
2023/08/01 02:35:37;;;;;;;10.95;5.70;;;;;;;16.10;100.00;99551.47;5008948;28;20120;-74
2023/08/01 02:38:03;;;;;;;12.90;5.32;;;;;;;16.07;100.00;99559.78;5021004;28;20100;-73
2023/08/01 02:40:28;;;;;;;8.05;5.55;;;;;;;16.16;100.00;99558.41;5028208;28;20618;-74
2023/08/01 02:42:54;;;;;;;8.45;5.63;;;;;;;16.10;100.00;99560.09;5005542;28;20034;-74
2023/08/01 02:45:20;;;;;;;8.32;4.85;;;;;;;16.11;100.00;99564.31;5022931;28;20040;-74
2023/08/01 02:47:46;;;;;;;9.55;6.28;;;;;;;16.08;100.00;99569.97;5001962;28;20037;-73
2023/08/01 02:50:11;;;;;;;7.97;5.20;;;;;;;16.08;100.00;99567.38;5020846;28;20056;-74
2023/08/01 02:52:37;;;;;;;13.63;6.43;;;;;;;15.94;100.00;99571.19;5004361;28;20038;-75
2023/08/01 02:55:02;;;;;;;13.30;6.05;;;;;;;15.87;100.00;99578.31;5020337;28;20028;-74
2023/08/01 02:57:28;;;;;;;9.85;6.38;;;;;;;15.78;100.00;99577.81;5017433;28;20038;-75
2023/08/01 02:59:53;;;;;;;10.70;6.30;;;;;;;15.73;100.00;99578.47;5022893;28;20087;-72
2023/08/01 03:02:19;;;;;;;11.75;6.40;;;;;;;15.65;100.00;99577.94;5004860;28;20071;-74
2023/08/01 03:04:45;;;;;;;14.43;6.43;;;;;;;15.65;100.00;99588.38;5017954;28;20556;-73
2023/08/01 03:07:11;;;;;;;13.75;6.60;;;;;;;15.64;100.00;99584.97;5020121;28;20124;-73
2023/08/01 03:09:36;;;;;;;14.45;6.38;;;;;;;15.59;100.00;99584.81;5007659;28;20037;-74
2023/08/01 03:12:02;;;;;;;12.50;6.15;;;;;;;15.58;100.00;99594.50;5000295;28;20068;-74
2023/08/01 03:14:27;;;;;;;16.52;6.38;;;;;;;15.55;100.00;99588.91;5017212;28;20457;-73
2023/08/01 03:16:53;;;;;;;13.18;7.07;;;;;;;15.55;100.00;99594.13;5020898;28;20414;-74
2023/08/01 03:19:18;;;;;;;17.80;7.80;;;;;;;15.43;100.00;99596.66;5012531;28;20038;-74
2023/08/01 03:21:43;;;;;;;13.75;6.70;;;;;;;15.45;100.00;99602.47;5022796;28;20083;-74
2023/08/01 03:24:09;;;;;;;19.67;7.82;;;;;;;15.40;100.00;99609.34;5000065;28;20117;-73
2023/08/01 03:26:37;;;;;;;16.40;7.90;;;;;;;15.41;100.00;99613.56;5001211;28;20048;-75
2023/08/01 03:29:05;;;;;;;17.00;7.70;;;;;;;15.48;100.00;99619.50;5017443;28;20119;-73
2023/08/01 03:31:31;;;;;;;12.55;8.48;;;;;;;15.42;100.00;99609.94;5003069;28;20388;-75
2023/08/01 03:33:58;;;;;;;14.75;8.73;;;;;;;15.43;100.00;99616.78;5001879;28;20041;-75
2023/08/01 03:36:24;;;;;;;16.08;8.15;;;;;;;15.35;100.00;99623.88;5020914;28;20038;-75
2023/08/01 03:38:50;;;;;;;19.38;10.63;;;;;;;15.31;100.00;99620.09;5005648;28;20033;-74
2023/08/01 03:41:15;;;;;;;18.25;10.43;;;;;;;15.29;100.00;99611.66;5023464;28;20508;-74
2023/08/01 03:43:41;;;;;;;23.00;12.23;;;;;;;15.27;100.00;99615.50;5003501;28;20026;-73
2023/08/01 03:46:07;;;;;;;19.80;12.25;;;;;;;15.31;100.00;99619.28;5002294;28;20045;-74
2023/08/01 03:48:32;;;;;;;22.13;13.57;;;;;;;15.17;100.00;99619.41;5017075;28;20038;-74
2023/08/01 03:50:58;;;;;;;24.98;14.43;;;;;;;15.13;100.00;99625.28;5022126;28;20048;-74
2023/08/01 03:53:26;;;;;;;21.33;12.60;;;;;;;15.17;100.00;99621.22;5016741;28;20400;-72
2023/08/01 03:55:51;;;;;;;22.95;13.18;;;;;;;15.20;100.00;99623.41;5005018;28;20041;-74
2023/08/01 03:58:16;;;;;;;19.98;12.40;;;;;;;15.22;100.00;99618.78;5004533;28;20631;-74
2023/08/01 04:00:42;;;;;;;20.83;10.73;;;;;;;15.18;100.00;99628.84;5017566;28;20067;-75
2023/08/01 04:03:07;;;;;;;23.33;13.38;;;;;;;15.13;100.00;99630.50;5007183;28;20033;-74
2023/08/01 04:05:33;;;;;;;20.98;12.32;;;;;;;15.19;100.00;99627.03;5018238;28;20025;-74
2023/08/01 04:07:58;;;;;;;22.52;12.77;;;;;;;15.13;100.00;99633.09;5021360;28;20209;-74
2023/08/01 04:10:24;;;;;;;22.45;12.77;;;;;;;15.05;100.00;99634.19;5019934;28;20048;-74
2023/08/01 04:12:49;;;;;;;20.98;12.35;;;;;;;14.97;100.00;99630.03;5006730;28;20487;-74
2023/08/01 04:15:15;;;;;;;23.13;12.80;;;;;;;15.03;100.00;99638.81;5020249;28;20045;-74
2023/08/01 04:17:40;;;;;;;22.63;12.25;;;;;;;15.01;100.00;99632.97;5018494;28;20037;-73
2023/08/01 04:20:06;;;;;;;24.98;13.80;;;;;;;15.04;100.00;99631.78;5019709;28;20041;-74
2023/08/01 04:22:32;;;;;;;28.63;13.02;;;;;;;15.13;100.00;99625.28;5017502;28;20091;-73
2023/08/01 04:24:57;;;;;;;26.73;13.75;;;;;;;15.05;100.00;99620.31;5020972;28;20030;-74
2023/08/01 04:27:23;;;;;;;22.30;12.95;;;;;;;14.99;100.00;99622.78;5018092;28;20045;-75
2023/08/01 04:29:49;;;;;;;28.70;14.27;;;;;;;15.04;100.00;99618.72;5014251;28;20519;-74
2023/08/01 04:32:15;;;;;;;25.20;13.68;;;;;;;15.03;100.00;99619.72;5022104;28;20048;-75
2023/08/01 04:34:41;;;;;;;25.73;13.45;;;;;;;15.16;100.00;99617.00;5020607;28;20033;-73
2023/08/01 04:37:07;;;;;;;23.92;13.07;;;;;;;15.14;100.00;99617.22;5024749;28;20119;-74
2023/08/01 04:39:32;;;;;;;22.48;13.23;;;;;;;15.04;100.00;99618.72;5025472;28;20029;-75
2023/08/01 04:41:58;;;;;;;23.88;12.65;;;;;;;15.03;100.00;99622.34;5025887;28;20037;-74
2023/08/01 04:44:23;;;;;;;21.42;11.93;;;;;;;14.92;100.00;99616.81;5022154;28;20035;-74
2023/08/01 04:46:49;;;;;;;24.67;13.13;;;;;;;14.88;100.00;99631.28;5002127;28;20049;-74
2023/08/01 04:49:14;;;;;;;24.63;12.65;;;;;;;15.02;100.00;99628.59;5025300;28;20033;-74
2023/08/01 04:51:40;;;;;;;22.00;12.25;;;;;;;14.99;100.00;99625.38;5022959;28;20041;-75
2023/08/01 04:54:05;;;;;;;21.23;11.57;;;;;;;14.94;100.00;99632.25;5022644;28;20052;-75
2023/08/01 04:56:30;;;;;;;19.88;11.10;;;;;;;14.96;100.00;99638.06;5010281;28;20042;-75
2023/08/01 04:58:56;;;;;;;20.13;10.68;;;;;;;14.98;100.00;99630.81;5023581;28;20036;-74
2023/08/01 05:01:21;;;;;;;22.48;11.05;;;;;;;15.01;100.00;99643.44;5024739;28;20662;-75
2023/08/01 05:03:47;;;;;;;18.30;10.98;;;;;;;15.01;100.00;99643.44;5021204;28;21819;-74
2023/08/01 05:06:12;;;;;;;17.05;10.55;;;;;;;14.97;100.00;99644.88;5021294;28;20037;-74
2023/08/01 05:08:38;;;;;;;18.33;9.82;;;;;;;14.99;100.00;99648.06;5015837;28;20060;-75
2023/08/01 05:11:03;;;;;;;17.48;9.85;;;;;;;15.01;100.00;99655.69;5025396;28;20597;-75
2023/08/01 05:13:29;;;;;;;13.32;9.20;;;;;;;15.03;100.00;99653.66;5014845;28;20029;-75
2023/08/01 05:15:54;;;;;;;23.17;10.00;;;;;;;15.09;100.00;99658.06;5022975;28;20042;-76
2023/08/01 05:18:19;;;;;;;19.40;10.38;;;;;;;15.08;100.00;99649.41;5027864;28;20387;-74
2023/08/01 05:20:45;;;;;;;17.98;9.35;;;;;;;15.04;100.00;99650.03;5019802;28;20033;-75
2023/08/01 05:23:11;;;;;;;15.70;8.63;;;;;;;15.11;100.00;99656.81;5020274;28;20037;-74
2023/08/01 05:25:36;;;;;;;18.88;9.60;;;;;;;15.09;100.00;99647.59;5022883;28;20032;-76
2023/08/01 05:28:02;;;;;;;21.35;9.00;;;;;;;15.08;100.00;99653.81;5022630;28;20026;-75
2023/08/01 05:30:27;;;;;;;18.95;8.77;;;;;;;15.21;100.00;99658.94;5021875;28;20483;-75
2023/08/01 05:32:54;;;;;;;13.75;7.40;;;;;;;15.15;100.00;99665.81;5018690;28;20569;-74
2023/08/01 05:35:20;;;;;;;14.75;7.68;;;;;;;15.13;100.00;99674.88;5017964;28;20566;-75
2023/08/01 05:37:45;;;;;;;15.32;8.38;;;;;;;15.04;100.00;99678.75;5021495;28;20388;-75
2023/08/01 05:40:11;;;;;;;19.73;8.40;;;;;;;15.15;100.00;99680.69;5023163;28;20045;-75
2023/08/01 05:42:37;;;;;;;19.23;8.27;;;;;;;15.15;100.00;99678.06;5017412;28;20484;-76
2023/08/01 05:45:03;;;;;;;18.00;7.93;;;;;;;15.09;100.00;99684.16;5022275;28;20029;-74
2023/08/01 05:47:29;;;;;;;21.20;7.25;;;;;;;14.99;100.00;99677.59;5007103;28;20052;-75
2023/08/01 05:49:55;;;;;;;16.00;7.82;;;;;;;15.05;100.00;99681.16;5012232;28;20029;-75
2023/08/01 05:52:20;;;;;;;16.85;8.20;;;;;;;15.07;100.00;99675.72;5021231;28;20396;-75
2023/08/01 05:54:46;;;;;;;19.95;8.77;;;;;;;15.15;100.00;99681.47;5022788;28;20134;-74
2023/08/01 05:57:11;;;;;;;17.23;7.93;;;;;;;15.26;100.00;99674.78;5004000;28;20037;-74
2023/08/01 05:59:37;;;;;;;16.58;7.97;;;;;;;15.30;100.00;99680.38;5020447;28;20029;-74
2023/08/01 06:02:02;;;;;;;16.95;7.30;;;;;;;15.23;100.00;99674.41;5025527;28;20041;-74
2023/08/01 06:04:28;;;;;;;13.48;6.53;;;;;;;15.27;100.00;99671.13;5024840;28;20039;-73
2023/08/01 06:06:53;;;;;;;11.63;6.57;;;;;;;15.41;100.00;99669.22;5023266;28;20500;-74
2023/08/01 06:09:19;;;;;;;16.05;6.82;;;;;;;15.60;100.00;99674.47;5022344;28;20056;-75
2023/08/01 06:11:44;;;;;;;16.98;6.97;;;;;;;15.60;100.00;99664.03;5024382;28;20040;-74
2023/08/01 06:14:10;;;;;;;17.02;7.05;;;;;;;15.77;100.00;99672.91;5022196;28;20036;-74
2023/08/01 06:16:35;;;;;;;17.67;7.70;;;;;;;15.92;100.00;99664.72;5022091;28;20038;-75
2023/08/01 06:19:02;;;;;;;17.83;7.97;;;;;;;16.13;100.00;99663.47;5021586;28;20033;-74
2023/08/01 06:21:28;;;;;;;14.88;7.28;;;;;;;16.37;100.00;99671.41;5021771;28;20040;-75
2023/08/01 06:23:53;;;;;;;14.50;6.40;;;;;;;16.25;100.00;99666.13;5021298;28;20033;-75
2023/08/01 06:26:19;;;;;;;13.20;6.25;;;;;;;16.14;100.00;99665.06;5014970;28;20053;-74
2023/08/01 06:28:44;;;;;;;16.77;5.70;;;;;;;16.02;100.00;99670.22;5020604;28;20037;-74
2023/08/01 06:31:10;;;;;;;14.23;5.93;;;;;;;15.93;100.00;99674.94;5005067;28;20492;-75
2023/08/01 06:33:35;;;;;;;15.25;6.22;;;;;;;15.98;100.00;99679.53;5026222;28;20036;-73
2023/08/01 06:36:01;;;;;;;16.92;7.00;;;;;;;15.98;100.00;99678.75;5020712;28;20519;-75
2023/08/01 06:38:26;;;;;;;17.90;6.82;;;;;;;16.10;100.00;99680.38;5003639;28;20037;-74
2023/08/01 06:40:51;;;;;;;18.63;9.15;;;;;;;16.23;100.00;99676.81;5013487;28;20455;-75
2023/08/01 06:43:17;;;;;;;16.75;7.25;;;;;;;16.35;100.00;99677.69;5020256;28;20055;-74
2023/08/01 06:45:42;;;;;;;19.65;6.95;;;;;;;16.47;100.00;99669.06;5022474;28;20507;-74
2023/08/01 06:48:08;;;;;;;12.82;6.90;;;;;;;16.41;100.00;99675.19;5022740;28;20037;-75
2023/08/01 06:50:34;;;;;;;15.73;7.15;;;;;;;16.37;100.00;99672.22;5009990;28;20037;-74
2023/08/01 06:53:00;;;;;;;15.73;6.70;;;;;;;16.24;100.00;99670.56;5020761;28;20476;-74
2023/08/01 06:55:26;;;;;;;17.75;6.95;;;;;;;16.38;100.00;99675.63;5025468;28;20400;-74
2023/08/01 06:57:51;;;;;;;16.42;6.60;;;;;;;16.51;100.00;99676.25;5017685;28;20060;-75
2023/08/01 07:00:17;;;;;;;19.63;6.97;;;;;;;16.57;100.00;99674.56;5024039;28;20442;-74
2023/08/01 07:02:43;;;;;;;13.77;6.75;;;;;;;16.45;100.00;99665.88;5024639;28;20442;-73
2023/08/01 07:05:08;;;;;;;20.60;7.03;;;;;;;16.40;100.00;99671.75;5027007;28;20040;-76
2023/08/01 07:07:34;;;;;;;14.68;6.57;;;;;;;16.59;100.00;99682.19;5022001;28;20126;-75
2023/08/01 07:09:59;;;;;;;15.05;6.25;;;;;;;16.53;100.00;99689.13;5006680;28;20095;-74
2023/08/01 07:12:25;;;;;;;12.15;6.32;;;;;;;16.49;100.00;99691.38;5020615;28;20030;-75
2023/08/01 07:14:51;;;;;;;15.70;6.75;;;;;;;16.49;100.00;99683.53;5016405;28;20093;-75
2023/08/01 07:17:16;;;;;;;15.23;6.53;;;;;;;16.57;100.00;99689.47;5016941;28;20498;-75
2023/08/01 07:19:42;;;;;;;14.40;7.78;;;;;;;16.76;100.00;99677.13;5019047;28;20417;-74
2023/08/01 07:22:07;;;;;;;16.98;6.93;;;;;;;16.81;100.00;99690.34;5018775;28;20519;-74
2023/08/01 07:24:33;;;;;;;12.45;6.57;;;;;;;16.84;100.00;99689.91;5021375;28;20506;-75
2023/08/01 07:26:58;;;;;;;16.65;7.95;;;;;;;16.76;100.00;99700.69;5017809;28;20042;-76
2023/08/01 07:29:24;;;;;;;14.88;6.60;;;;;;;16.86;100.00;99693.13;5018284;28;20037;-76
2023/08/01 07:31:49;;;;;;;14.45;7.32;;;;;;;17.17;100.00;99694.66;5020666;28;20044;-74
2023/08/01 07:34:15;;;;;;;16.13;6.60;;;;;;;17.12;100.00;99697.13;5022109;28;20034;-76
2023/08/01 07:36:41;;;;;;;16.63;6.75;;;;;;;17.12;100.00;99708.44;5020641;28;20542;-76
2023/08/01 07:39:06;;;;;;;15.07;6.70;;;;;;;17.37;100.00;99704.81;5022222;28;20431;-75
2023/08/01 07:41:33;;;;;;;15.40;6.97;;;;;;;17.77;100.00;99703.34;5022383;28;20037;-76
2023/08/01 07:44:01;;;;;;;23.02;6.95;;;;;;;17.66;100.00;99700.47;5023086;28;20091;-75
2023/08/01 07:46:26;;;;;;;11.02;5.63;;;;;;;17.77;100.00;99706.75;5023316;28;20393;-76
2023/08/01 07:48:53;;;;;;;10.30;5.70;;;;;;;17.70;100.00;99706.84;5019782;28;20032;-75
2023/08/01 07:51:19;;;;;;;16.50;5.47;;;;;;;17.59;100.00;99706.84;5017112;28;20041;-76
2023/08/01 07:53:44;;;;;;;12.18;6.05;;;;;;;17.53;100.00;99705.94;5015891;28;20029;-76
2023/08/01 07:56:10;;;;;;;10.90;6.03;;;;;;;17.38;100.00;99710.84;5006135;28;20040;-74
2023/08/01 07:58:36;;;;;;;13.88;5.70;;;;;;;17.24;100.00;99712.91;5020807;28;20029;-76
2023/08/01 08:01:05;;;;;;;13.98;5.93;;;;;;;17.03;100.00;99716.84;5012475;28;20500;-75
2023/08/01 08:03:30;;;;;;;27.83;6.65;;;;;;;17.01;100.00;99721.50;5025111;28;20553;-76
2023/08/01 08:05:56;;;;;;;14.15;5.38;;;;;;;16.97;100.00;99710.69;5020005;28;20045;-76
2023/08/01 08:08:21;;;;;;;9.57;4.70;;;;;;;17.05;100.00;99725.28;5022566;28;20060;-75
2023/08/01 08:10:47;;;;;;;10.05;5.65;;;;;;;17.18;100.00;99714.59;5020876;28;20679;-76
2023/08/01 08:13:12;;;;;;;13.13;5.10;;;;;;;17.90;100.00;99713.59;5011324;28;20419;-74
2023/08/01 08:15:38;;;;;;;12.02;5.30;;;;;;;18.01;100.00;99712.00;5022105;28;20381;-75
2023/08/01 08:18:04;;;;;;;12.65;5.07;;;;;;;18.11;100.00;99712.19;5024226;28;20527;-76
2023/08/01 08:20:31;;;;;;;12.75;5.07;;;;;;;18.09;100.00;99709.00;5019268;28;20052;-75
2023/08/01 08:22:56;;;;;;;10.15;4.60;;;;;;;17.88;100.00;99711.22;5008738;28;20030;-76
2023/08/01 08:25:22;;;;;;;12.95;5.15;;;;;;;17.87;100.00;99716.66;5025864;28;20037;-75
2023/08/01 08:27:49;;;;;;;14.95;4.35;;;;;;;17.61;100.00;99715.28;5020270;28;20040;-76
2023/08/01 08:30:14;;;;;;;9.32;4.68;;;;;;;17.42;100.00;99723.28;5022670;28;20575;-75
2023/08/01 08:32:40;;;;;;;10.40;4.40;;;;;;;17.59;100.00;99727.81;5014828;28;20045;-75
2023/08/01 08:35:05;;;;;;;12.70;4.53;;;;;;;17.96;99.54;99730.25;5009793;28;20030;-76
2023/08/01 08:37:31;;;;;;;8.93;4.30;;;;;;;17.78;100.00;99724.06;5007460;28;20033;-76
2023/08/01 08:39:56;;;;;;;14.13;4.63;;;;;;;17.62;100.00;99732.63;5020049;28;20029;-76
2023/08/01 08:42:22;;;;;;;10.57;4.00;;;;;;;17.52;100.00;99728.75;5023149;28;20220;-76
2023/08/01 08:44:54;;;;;;;12.70;4.40;;;;;;;18.08;100.00;99731.81;5010836;28;20029;-76
2023/08/01 08:47:24;;;;;;;9.63;4.20;;;;;;;18.71;99.08;99739.03;5024464;28;20037;-77
2023/08/01 08:49:50;;;;;;;13.13;4.15;;;;;;;19.65;93.85;99733.22;5023067;28;20032;-76
2023/08/01 08:52:16;;;;;;;16.33;4.80;;;;;;;19.62;91.23;99720.56;5024216;28;20034;-75
2023/08/01 08:54:42;;;;;;;13.10;4.50;;;;;;;19.91;89.01;99718.63;5024528;28;20086;-77
2023/08/01 08:57:08;;;;;;;12.50;4.00;;;;;;;19.53;89.08;99720.16;5020474;28;20064;-76
2023/08/01 08:59:34;;;;;;;10.10;3.90;;;;;;;19.27;89.93;99726.88;5023231;28;20460;-76
2023/08/01 09:02:03;;;;;;;9.38;4.03;;;;;;;19.57;91.75;99718.66;5021634;28;20033;-76
2023/08/01 09:04:30;;;;;;;11.95;4.38;;;;;;;19.52;89.41;99729.09;5026210;28;20395;-76
2023/08/01 09:07:01;;;;;;;13.77;3.75;;;;;;;19.31;88.13;99725.38;5015885;28;20758;-77
2023/08/01 09:09:27;;;;;;;7.85;3.78;;;;;;;19.73;88.54;99719.69;5023104;28;20030;-75
2023/08/01 09:11:56;;;;;;;11.20;4.60;;;;;;;19.81;88.14;99721.88;5018478;28;20113;-76
2023/08/01 09:14:22;;;;;;;11.88;4.03;;;;;;;20.63;85.97;99721.28;5019109;28;20742;-73
2023/08/01 09:16:47;;;;;;;12.63;4.15;;;;;;;20.81;82.30;99713.03;5019633;28;20053;-74
2023/08/01 09:19:18;;;;;;;9.52;3.55;;;;;;;20.78;82.58;99718.81;5018422;28;20029;-77
2023/08/01 09:21:43;;;;;;;10.13;4.38;;;;;;;20.49;83.20;99718.22;5005414;28;20033;-76
2023/08/01 09:24:10;;;;;;;9.38;3.70;;;;;;;21.06;82.03;99715.09;5021478;28;20460;-75
2023/08/01 09:26:37;;;;;;;11.45;3.30;;;;;;;21.18;80.48;99712.28;5023230;28;20037;-76
2023/08/01 09:29:02;;;;;;;9.02;4.13;;;;;;;21.34;78.76;99715.81;5019479;28;20037;-74
2023/08/01 09:31:39;;;;;;;8.13;3.35;;;;;;;20.97;81.75;99724.50;5010002;28;20038;-76
2023/08/01 09:34:06;;;;;;;7.25;3.47;;;;;;;20.62;81.11;99723.13;5008641;28;20041;-76
2023/08/01 09:36:34;;;;;;;6.65;3.28;;;;;;;20.78;82.58;99727.50;5020373;28;20253;-76
2023/08/01 09:39:04;;;;;;;7.97;3.30;;;;;;;21.06;80.31;99728.28;5020209;28;20191;-76
2023/08/01 09:41:30;;;;;;;10.77;3.78;;;;;;;20.98;77.77;99734.78;5020771;28;20454;-75
2023/08/01 09:43:56;;;;;;;9.35;3.35;;;;;;;20.44;78.84;99734.75;5014048;28;20061;-75
2023/08/01 09:46:22;;;;;;;6.93;3.00;;;;;;;20.22;80.08;99727.66;5018982;28;20069;-74
2023/08/01 09:48:48;;;;;;;7.38;3.40;;;;;;;20.50;81.17;99730.34;5018141;28;20037;-76
2023/08/01 09:51:15;;;;;;;8.25;3.28;;;;;;;20.90;76.03;99727.31;5013000;28;20060;-77
2023/08/01 09:53:50;;;;;;;8.38;3.50;;;;;;;20.82;78.24;99732.28;5021949;28;20049;-76
2023/08/01 09:56:22;;;;;;;6.50;2.90;;;;;;;20.56;77.96;99732.78;5019415;28;20508;-78
2023/08/01 09:58:48;;;;;;;5.82;3.05;;;;;;;20.65;77.63;99732.38;5020386;28;20084;-77
2023/08/01 10:01:16;;;;;;;10.52;3.85;;;;;;;20.49;80.62;99732.16;5020643;28;20056;-76
2023/08/01 10:03:46;;;;;;;10.98;3.83;;;;;;;20.41;81.27;99732.63;5023688;28;20025;-76
2023/08/01 10:06:17;;;;;;;13.57;4.57;;;;;;;20.38;81.50;99728.66;5013821;28;20395;-74
2023/08/01 10:08:44;;;;;;;10.15;3.28;;;;;;;20.18;79.95;99731.03;5023346;28;20496;-78
2023/08/01 10:11:11;;;;;;;9.45;3.75;;;;;;;20.24;80.32;99743.22;5022167;28;20064;-75
2023/08/01 10:13:37;;;;;;;9.45;3.00;;;;;;;20.25;78.99;99726.41;5019882;28;20041;-74
2023/08/01 10:16:02;;;;;;;7.90;3.67;;;;;;;20.23;81.50;99733.75;5018485;28;20061;-76
2023/08/01 10:18:29;;;;;;;6.85;3.08;;;;;;;19.99;80.25;99743.69;5022258;28;20065;-72
2023/08/01 10:20:56;;;;;;;7.93;3.70;;;;;;;19.96;83.61;99744.19;5020133;28;20046;-76
2023/08/01 10:23:22;;;;;;;10.60;3.33;;;;;;;19.80;82.52;99730.84;5020704;28;20037;-74
2023/08/01 10:25:48;;;;;;;9.85;4.03;;;;;;;19.98;81.78;99740.25;5019790;28;20029;-75
2023/08/01 10:28:13;;;;;;;12.10;3.40;;;;;;;19.77;81.92;99735.78;5017044;28;20052;-75
2023/08/01 10:30:38;;;;;;;9.23;4.50;;;;;;;19.68;80.95;99739.81;5001081;28;20037;-74
2023/08/01 10:33:04;;;;;;;7.07;3.30;;;;;;;19.63;83.05;99746.59;5011039;28;20029;-75
2023/08/01 10:35:36;;;;;;;6.43;2.90;;;;;;;19.73;80.76;99745.19;5006549;28;20025;-76
2023/08/01 10:38:05;;;;;;;12.30;3.45;;;;;;;19.97;79.31;99746.56;5020309;28;20061;-74
2023/08/01 10:40:41;;;;;;;8.15;3.05;;;;;;;20.22;80.78;99753.97;5023622;28;20132;-75
2023/08/01 10:43:20;;;;;;;8.93;3.30;;;;;;;20.07;80.49;99750.38;5016645;28;20072;-75
2023/08/01 10:45:45;;;;;;;7.03;3.13;;;;;;;20.35;80.16;99746.75;5017865;28;20040;-75
2023/08/01 10:48:11;;;;;;;9.38;3.25;;;;;;;20.87;77.44;99753.38;5019870;28;20045;-75
2023/08/01 10:50:37;;;;;;;6.55;2.85;;;;;;;21.05;75.41;99736.41;5020963;28;20109;-76
2023/08/01 10:53:05;;;;;;;8.68;2.88;;;;;;;21.10;72.74;99749.66;5024478;28;20506;-73
2023/08/01 10:55:40;;;;;;;9.95;2.67;;;;;;;21.35;74.63;99741.13;5021478;28;20128;-76
2023/08/01 10:58:05;;;;;;;7.43;2.75;;;;;;;21.41;72.77;99742.75;5020064;28;20399;-75
2023/08/01 11:00:31;;;;;;;5.55;2.55;;;;;;;21.20;72.88;99741.81;5021597;28;20029;-75
2023/08/01 11:02:56;;;;;;;7.43;2.85;;;;;;;20.83;71.84;99749.66;5018201;28;20028;-74
2023/08/01 11:05:23;;;;;;;6.57;2.67;;;;;;;20.62;72.89;99762.63;5007332;28;20040;-75
2023/08/01 11:08:00;;;;;;;9.02;2.95;;;;;;;20.15;73.14;99782.31;5018222;28;20045;-75
2023/08/01 11:10:31;;;;;;;7.20;3.03;;;;;;;19.99;73.31;99791.84;5018531;28;20040;-75
2023/08/01 11:12:57;;;;;;;4.43;2.30;;;;;;;19.47;80.22;99818.38;5022675;28;20041;-74
2023/08/01 11:15:23;;;;;;;5.22;2.55;;;;;;;19.22;87.37;99824.03;5015882;28;20045;-75
2023/08/01 11:17:57;;;;;;;10.77;2.60;;;;;;;18.85;90.12;99832.28;5014587;28;20053;-75